Time;durP1;ratioP1;P1;durP2;ratioP2;P2;SDS_P1;SDS_P2;PMS_P1;PMS_P2;Temp;Humidity;BMP_temperature;BMP_pressure;BME280_temperature;BME280_humidity;BME280_pressure;Samples;Min_cycle;Max_cycle;Signal;HPM_P1;HPM_P2
2022/07/25 00:01:07;;;;;;;;;;;24.10;72.40;;;;;;5092139;28;19954;-96
2022/07/25 00:03:33;;;;;;;;;;;24.10;72.60;;;;;;5074361;28;19946;-96
2022/07/25 00:05:59;;;;;;;;;;;24.00;72.70;;;;;;5091138;28;19958;-96
2022/07/25 00:08:25;;;;;;;;;;;24.20;72.30;;;;;;5090576;28;20009;-96
2022/07/25 00:10:50;;;;;;;;;;;24.30;71.60;;;;;;5071036;28;19974;-96
2022/07/25 00:13:16;;;;;;;;;;;24.20;71.60;;;;;;5088201;28;20015;-96
2022/07/25 00:15:42;;;;;;;;;;;24.20;71.40;;;;;;5087625;28;20031;-96
2022/07/25 00:18:08;;;;;;;;;;;24.20;70.60;;;;;;5070523;28;20008;-96
2022/07/25 00:20:33;;;;;;;;;;;24.20;71.30;;;;;;5089123;28;19938;-96
2022/07/25 00:22:59;;;;;;;;;;;24.30;72.30;;;;;;5088894;28;19942;-96
2022/07/25 00:25:25;;;;;;;;;;;24.20;71.90;;;;;;5088340;28;20010;-96
2022/07/25 00:27:50;;;;;;;;;;;24.20;72.10;;;;;;5069680;28;19940;-96
2022/07/25 00:30:16;;;;;;;;;;;24.10;72.20;;;;;;5087281;28;19945;-96
2022/07/25 00:32:42;;;;;;;;;;;24.20;72.30;;;;;;5069219;28;19944;-96
2022/07/25 00:35:08;;;;;;;;;;;24.20;73.00;;;;;;5087978;28;19982;-96
2022/07/25 00:37:33;;;;;;;;;;;24.10;73.50;;;;;;5086909;28;20005;-96
2022/07/25 00:39:59;;;;;;;;;;;23.90;73.20;;;;;;5087986;28;19968;-96
2022/07/25 00:42:25;;;;;;;;;;;23.90;74.00;;;;;;5089781;28;19943;-96
2022/07/25 00:44:51;;;;;;;;;;;23.90;75.20;;;;;;5091071;28;19936;-96
2022/07/25 00:47:17;;;;;;;;;;;23.90;74.80;;;;;;5090872;28;19998;-96
2022/07/25 00:49:43;;;;;;;;;;;23.80;75.00;;;;;;5072686;28;19945;-96
2022/07/25 00:52:09;;;;;;;;;;;23.70;74.50;;;;;;5089396;28;19941;-96
2022/07/25 00:54:35;;;;;;;;;;;23.70;74.70;;;;;;5074806;28;19955;-96
2022/07/25 00:57:01;;;;;;;;;;;23.70;74.90;;;;;;5076023;28;19969;-96
2022/07/25 00:59:27;;;;;;;;;;;23.80;76.40;;;;;;5076257;28;19955;-96
2022/07/25 01:01:53;;;;;;;;;;;23.80;76.20;;;;;;5078179;28;19955;-96
2022/07/25 01:04:22;;;;;;;;;;;23.70;76.10;;;;;;5077654;28;19942;-96
2022/07/25 01:06:48;;;;;;;;;;;23.70;74.70;;;;;;5094389;28;19932;-96
2022/07/25 01:09:15;;;;;;;;;;;23.50;74.50;;;;;;5077139;28;19952;-96
2022/07/25 01:11:41;;;;;;;;;;;23.30;75.60;;;;;;5076277;28;20389;-96
2022/07/25 01:14:07;;;;;;;;;;;23.30;75.60;;;;;;5094725;28;19967;-96
2022/07/25 01:16:36;;;;;;;;;;;23.50;75.40;;;;;;5076514;28;19974;-96
2022/07/25 01:19:04;;;;;;;;;;;23.60;75.00;;;;;;5076771;28;19941;-96
2022/07/25 01:21:33;;;;;;;;;;;23.70;74.60;;;;;;5095392;28;19947;-96
2022/07/25 01:23:59;;;;;;;;;;;23.70;74.50;;;;;;5075996;28;20401;-96
2022/07/25 01:26:25;;;;;;;;;;;23.80;74.80;;;;;;5093773;28;19973;-96
2022/07/25 01:28:55;;;;;;;;;;;23.90;74.90;;;;;;5094671;28;19939;-96
2022/07/25 01:31:21;;;;;;;;;;;24.00;74.80;;;;;;5076383;28;19964;-96
2022/07/25 01:33:48;;;;;;;;;;;23.80;74.40;;;;;;5076309;28;20016;-96
2022/07/25 01:36:14;;;;;;;;;;;23.60;74.00;;;;;;5076102;28;20031;-96
2022/07/25 01:38:40;;;;;;;;;;;23.50;74.40;;;;;;5071676;28;19970;-96
2022/07/25 01:41:06;;;;;;;;;;;23.50;74.70;;;;;;5071174;28;19940;-96
2022/07/25 01:43:32;;;;;;;;;;;23.50;75.50;;;;;;5089747;28;19942;-96
2022/07/25 01:45:58;;;;;;;;;;;23.40;76.70;;;;;;5072534;28;19982;-96
2022/07/25 01:48:29;;;;;;;;;;;23.40;77.60;;;;;;5071728;28;19952;-96
2022/07/25 01:50:55;;;;;;;;;;;23.30;75.80;;;;;;5089276;28;19969;-96
2022/07/25 01:53:20;;;;;;;;;;;23.20;75.50;;;;;;5070737;28;19943;-96
2022/07/25 01:55:46;;;;;;;;;;;22.90;75.80;;;;;;5087240;28;19961;-96
2022/07/25 01:58:12;;;;;;;;;;;22.90;76.20;;;;;;5070222;28;20006;-96
2022/07/25 02:00:38;;;;;;;;;;;22.90;76.30;;;;;;5087527;28;20328;-96
2022/07/25 02:05:48;;;;;;;;;;;23.00;76.10;;;;;;5085913;28;19946;-96
2022/07/25 02:08:14;;;;;;;;;;;23.30;75.80;;;;;;5086200;28;19980;-96
2022/07/25 02:10:40;;;;;;;;;;;23.40;74.30;;;;;;5085680;28;19942;-96
2022/07/25 02:13:06;;;;;;;;;;;23.60;73.40;;;;;;5067756;28;19953;-96
2022/07/25 02:15:31;;;;;;;;;;;23.80;72.70;;;;;;5085106;28;20031;-96
2022/07/25 02:17:57;;;;;;;;;;;24.00;71.90;;;;;;5067056;28;20010;-96
2022/07/25 02:20:23;;;;;;;;;;;24.10;72.00;;;;;;5067680;28;19979;-96
2022/07/25 02:22:49;;;;;;;;;;;24.20;71.90;;;;;;5067695;28;20326;-96
2022/07/25 02:25:14;;;;;;;;;;;24.30;71.80;;;;;;5085139;28;19973;-96
2022/07/25 02:27:40;;;;;;;;;;;24.30;72.00;;;;;;5084478;28;19941;-96
2022/07/25 02:30:06;;;;;;;;;;;24.40;72.20;;;;;;5085155;28;19938;-96
2022/07/25 02:32:32;;;;;;;;;;;24.40;72.20;;;;;;5084547;28;20403;-96
2022/07/25 02:34:58;;;;;;;;;;;24.40;71.90;;;;;;5084609;28;19947;-96
2022/07/25 02:37:24;;;;;;;;;;;24.40;72.50;;;;;;5084424;28;19995;-96
2022/07/25 02:39:49;;;;;;;;;;;24.30;72.10;;;;;;5069975;28;20411;-96
2022/07/25 02:42:15;;;;;;;;;;;24.20;72.10;;;;;;5086891;28;19936;-96
2022/07/25 02:44:41;;;;;;;;;;;24.10;72.60;;;;;;5088701;28;20005;-96
2022/07/25 02:47:07;;;;;;;;;;;24.00;72.70;;;;;;5071940;28;19949;-96
2022/07/25 02:49:35;;;;;;;;;;;23.90;72.60;;;;;;5088363;28;19937;-96
2022/07/25 02:52:01;;;;;;;;;;;23.90;73.00;;;;;;5072251;28;19944;-96
2022/07/25 02:54:27;;;;;;;;;;;23.90;73.30;;;;;;5088665;28;19951;-96
2022/07/25 02:56:52;;;;;;;;;;;23.90;73.40;;;;;;5088171;28;20012;-96
2022/07/25 02:59:21;;;;;;;;;;;23.90;72.70;;;;;;5088138;28;20009;-96
2022/07/25 03:01:47;;;;;;;;;;;23.80;71.90;;;;;;5087607;28;19945;-96
2022/07/25 03:04:13;;;;;;;;;;;23.80;72.00;;;;;;5070313;28;19940;-96
2022/07/25 03:06:38;;;;;;;;;;;23.70;72.80;;;;;;5087803;28;19946;-96
2022/07/25 03:09:04;;;;;;;;;;;23.70;72.90;;;;;;5068942;28;19944;-96
2022/07/25 03:11:30;;;;;;;;;;;23.80;72.40;;;;;;5069878;28;19942;-96
2022/07/25 03:13:56;;;;;;;;;;;23.80;72.30;;;;;;5085579;28;20039;-96
2022/07/25 03:16:22;;;;;;;;;;;23.70;72.40;;;;;;5085401;28;20437;-96
2022/07/25 03:18:48;;;;;;;;;;;23.70;72.30;;;;;;5067515;28;19945;-96
2022/07/25 03:21:14;;;;;;;;;;;23.70;72.20;;;;;;5086035;28;19947;-96
2022/07/25 03:23:40;;;;;;;;;;;23.80;72.40;;;;;;5085128;28;20411;-96
2022/07/25 03:26:05;;;;;;;;;;;23.80;72.60;;;;;;5085759;28;19983;-96
2022/07/25 03:28:31;;;;;;;;;;;23.80;73.20;;;;;;5086525;28;19943;-96
2022/07/25 03:30:57;;;;;;;;;;;23.80;72.40;;;;;;5086371;28;19944;-96
2022/07/25 03:33:23;;;;;;;;;;;23.80;71.00;;;;;;5069523;28;19954;-96
2022/07/25 03:35:49;;;;;;;;;;;23.80;71.70;;;;;;5068704;28;19982;-96
2022/07/25 03:38:14;;;;;;;;;;;23.70;72.80;;;;;;5069868;28;19942;-96
2022/07/25 03:40:40;;;;;;;;;;;23.70;73.20;;;;;;5068009;28;20306;-96
2022/07/25 03:43:06;;;;;;;;;;;23.60;72.50;;;;;;5086173;28;20397;-96
2022/07/25 03:45:32;;;;;;;;;;;23.70;73.20;;;;;;5070407;28;19969;-96
2022/07/25 03:47:57;;;;;;;;;;;23.60;73.80;;;;;;5073502;28;19953;-96
2022/07/25 03:50:24;;;;;;;;;;;23.60;74.10;;;;;;5073281;28;19997;-96
2022/07/25 03:52:50;;;;;;;;;;;23.50;73.90;;;;;;5075877;28;19962;-96
2022/07/25 03:55:16;;;;;;;;;;;23.40;74.10;;;;;;5076256;28;19953;-96
2022/07/25 03:57:42;;;;;;;;;;;23.40;73.90;;;;;;5075138;28;19949;-96
2022/07/25 04:00:09;;;;;;;;;;;23.30;73.20;;;;;;5075011;28;19967;-96
2022/07/25 04:02:36;;;;;;;;;;;23.20;74.10;;;;;;5074845;28;19944;-96
2022/07/25 04:05:02;;;;;;;;;;;23.20;73.50;;;;;;5073510;28;20003;-96
2022/07/25 04:07:31;;;;;;;;;;;23.20;73.00;;;;;;5073615;28;19999;-96
2022/07/25 04:09:57;;;;;;;;;;;23.30;73.60;;;;;;5072974;28;19948;-96
2022/07/25 04:12:23;;;;;;;;;;;23.40;73.40;;;;;;5073499;28;19937;-96
2022/07/25 04:14:49;;;;;;;;;;;23.60;73.10;;;;;;5072165;28;20483;-96
2022/07/25 04:17:15;;;;;;;;;;;23.50;72.30;;;;;;5071207;28;19983;-96
2022/07/25 04:19:41;;;;;;;;;;;23.40;73.60;;;;;;5090988;28;19941;-96
2022/07/25 04:22:06;;;;;;;;;;;23.50;73.60;;;;;;5091098;28;19942;-96
2022/07/25 04:24:32;;;;;;;;;;;23.30;74.30;;;;;;5091144;28;19952;-96
2022/07/25 04:26:58;;;;;;;;;;;23.20;74.70;;;;;;5088474;28;19978;-96
2022/07/25 04:29:24;;;;;;;;;;;23.20;76.20;;;;;;5074051;28;19947;-96
2022/07/25 04:31:49;;;;;;;;;;;23.20;77.20;;;;;;5069583;28;19947;-96
2022/07/25 04:34:19;;;;;;;;;;;23.20;76.60;;;;;;5087145;28;20356;-96
2022/07/25 04:36:44;;;;;;;;;;;23.30;76.20;;;;;;5087659;28;19961;-96
2022/07/25 04:39:10;;;;;;;;;;;23.30;76.20;;;;;;5088008;28;20368;-96
2022/07/25 04:41:36;;;;;;;;;;;23.30;74.80;;;;;;5088104;28;20378;-96
2022/07/25 04:44:02;;;;;;;;;;;23.40;75.10;;;;;;5070839;28;19943;-96
2022/07/25 04:46:27;;;;;;;;;;;23.60;74.30;;;;;;5089185;28;19966;-96
2022/07/25 04:48:53;;;;;;;;;;;23.80;72.10;;;;;;5070901;28;19942;-96
2022/07/25 04:51:19;;;;;;;;;;;23.80;72.10;;;;;;5088250;28;19937;-96
2022/07/25 04:53:45;;;;;;;;;;;24.10;71.50;;;;;;5088498;28;19937;-96
2022/07/25 04:56:11;;;;;;;;;;;24.10;71.40;;;;;;5070644;28;19966;-96
2022/07/25 04:58:37;;;;;;;;;;;24.20;71.60;;;;;;5070295;28;19946;-96
2022/07/25 05:01:03;;;;;;;;;;;24.30;71.20;;;;;;5088215;28;19954;-96
2022/07/25 05:03:28;;;;;;;;;;;24.20;70.40;;;;;;5068275;28;19983;-96
2022/07/25 05:05:54;;;;;;;;;;;24.20;71.10;;;;;;5085379;28;19934;-96
2022/07/25 05:08:20;;;;;;;;;;;24.20;71.90;;;;;;5084722;28;19975;-96
2022/07/25 05:10:45;;;;;;;;;;;24.10;71.90;;;;;;5083584;28;19975;-96
2022/07/25 05:13:11;;;;;;;;;;;24.20;70.80;;;;;;5064756;28;19947;-96
2022/07/25 05:15:37;;;;;;;;;;;24.30;70.50;;;;;;5084619;28;19972;-96
2022/07/25 05:18:03;;;;;;;;;;;24.40;70.10;;;;;;5086997;28;20459;-96
2022/07/25 05:20:28;;;;;;;;;;;24.50;69.60;;;;;;5085019;28;19941;-96
2022/07/25 05:22:54;;;;;;;;;;;24.60;69.50;;;;;;5085452;28;19957;-96
2022/07/25 05:25:20;;;;;;;;;;;24.60;68.70;;;;;;5067019;28;20450;-96
2022/07/25 05:27:46;;;;;;;;;;;24.70;69.40;;;;;;5068305;28;19954;-96
2022/07/25 05:30:12;;;;;;;;;;;24.80;68.70;;;;;;5086360;28;19950;-96
2022/07/25 05:32:38;;;;;;;;;;;24.90;68.30;;;;;;5084366;28;20000;-96
2022/07/25 05:35:04;;;;;;;;;;;25.00;67.90;;;;;;5081382;28;20354;-96
2022/07/25 05:37:30;;;;;;;;;;;25.10;67.90;;;;;;5062960;28;20021;-96
2022/07/25 05:39:56;;;;;;;;;;;25.20;68.00;;;;;;5062894;28;19942;-96
2022/07/25 05:42:21;;;;;;;;;;;25.20;68.10;;;;;;5080813;28;19937;-96
2022/07/25 05:44:47;;;;;;;;;;;25.30;68.40;;;;;;5081015;28;19959;-96
2022/07/25 05:47:13;;;;;;;;;;;25.30;69.20;;;;;;5083315;28;19935;-96
2022/07/25 05:49:38;;;;;;;;;;;25.40;68.90;;;;;;5081870;28;19942;-96
2022/07/25 05:52:04;;;;;;;;;;;25.50;68.90;;;;;;5082390;28;19945;-96
2022/07/25 05:54:30;;;;;;;;;;;25.70;68.80;;;;;;5064312;28;19967;-96
2022/07/25 05:56:56;;;;;;;;;;;25.80;68.00;;;;;;5080978;28;19963;-96
2022/07/25 05:59:21;;;;;;;;;;;25.90;67.90;;;;;;5064461;28;19964;-96
2022/07/25 06:01:47;;;;;;;;;;;26.00;67.50;;;;;;5065463;28;20060;-96
2022/07/25 06:04:13;;;;;;;;;;;26.20;68.10;;;;;;5086010;28;19950;-96
2022/07/25 06:06:39;;;;;;;;;;;26.30;67.70;;;;;;5085686;28;19944;-96
2022/07/25 06:09:05;;;;;;;;;;;26.30;67.20;;;;;;5067599;28;19945;-96
2022/07/25 06:11:31;;;;;;;;;;;26.40;66.40;;;;;;5086662;28;19948;-96
2022/07/25 06:13:57;;;;;;;;;;;26.50;66.20;;;;;;5085055;28;20032;-96
2022/07/25 06:16:23;;;;;;;;;;;26.60;64.30;;;;;;5066879;28;20051;-96
2022/07/25 06:18:48;;;;;;;;;;;26.70;63.30;;;;;;5067448;28;19942;-96
2022/07/25 06:21:14;;;;;;;;;;;26.80;63.30;;;;;;5068105;28;19954;-96
2022/07/25 06:23:40;;;;;;;;;;;26.90;63.90;;;;;;5067835;28;20007;-96
2022/07/25 06:26:09;;;;;;;;;;;27.00;63.00;;;;;;5073436;23;20013;-96
2022/07/25 06:28:37;;;;;;;;;;;27.10;61.90;;;;;;5067041;28;20221;-96
2022/07/25 06:31:03;;;;;;;;;;;27.20;61.30;;;;;;5085012;28;19945;-96
2022/07/25 06:33:28;;;;;;;;;;;27.30;61.00;;;;;;5084614;28;19952;-96
2022/07/25 06:35:54;;;;;;;;;;;27.40;61.30;;;;;;5067602;28;19977;-96
2022/07/25 06:38:20;;;;;;;;;;;27.70;60.70;;;;;;5086540;28;19936;-96
2022/07/25 06:40:46;;;;;;;;;;;27.80;60.40;;;;;;5085850;28;19944;-96
2022/07/25 06:43:12;;;;;;;;;;;28.00;59.80;;;;;;5088376;28;19945;-96
2022/07/25 06:45:38;;;;;;;;;;;28.10;58.50;;;;;;5070546;28;19951;-96
2022/07/25 06:48:06;;;;;;;;;;;28.30;59.60;;;;;;5073419;28;19946;-96
2022/07/25 06:50:31;;;;;;;;;;;28.40;58.70;;;;;;5090612;28;19986;-96
2022/07/25 06:52:57;;;;;;;;;;;28.50;57.90;;;;;;5073640;28;19946;-96
2022/07/25 06:55:23;;;;;;;;;;;28.60;57.50;;;;;;5091844;28;20011;-96
2022/07/25 06:57:49;;;;;;;;;;;28.70;57.90;;;;;;5091705;28;19952;-96
2022/07/25 07:00:15;;;;;;;;;;;28.70;57.40;;;;;;5075269;28;19951;-96
2022/07/25 07:03:23;;;;;;;;;;;28.80;57.50;;;;;;5075659;28;19947;-96
2022/07/25 07:05:54;;;;;;;;;;;28.80;56.60;;;;;;4996856;28;19961;-96
2022/07/25 07:08:27;;;;;;;;;;;28.80;57.40;;;;;;4997359;28;19950;-96
2022/07/25 07:10:55;;;;;;;;;;;29.00;57.30;;;;;;4980468;28;20432;-96
2022/07/25 07:13:24;;;;;;;;;;;29.10;57.40;;;;;;5088609;28;20012;-96
2022/07/25 07:16:00;;;;;;;;;;;29.20;56.60;;;;;;5093734;28;20022;-96
2022/07/25 07:18:32;;;;;;;;;;;29.20;56.00;;;;;;5076643;28;19949;-96
2022/07/25 07:21:00;;;;;;;;;;;29.30;55.70;;;;;;5080663;28;19952;-96
2022/07/25 07:23:26;;;;;;;;;;;29.40;54.10;;;;;;5078387;28;19948;-96
2022/07/25 07:25:52;;;;;;;;;;;29.50;52.90;;;;;;5076706;28;19981;-96
2022/07/25 07:28:18;;;;;;;;;;;29.60;53.60;;;;;;5077346;28;19957;-96
2022/07/25 07:30:45;;;;;;;;;;;29.70;54.10;;;;;;5096174;28;19956;-96
2022/07/25 07:33:11;;;;;;;;;;;29.80;53.80;;;;;;5078360;28;20026;-96
2022/07/25 07:35:40;;;;;;;;;;;29.90;53.50;;;;;;5079025;28;20016;-96
2022/07/25 07:38:10;;;;;;;;;;;30.00;52.40;;;;;;5079645;28;20395;-96
2022/07/25 07:40:36;;;;;;;;;;;30.10;52.30;;;;;;5076796;28;19960;-96
2022/07/25 07:43:05;;;;;;;;;;;30.20;52.70;;;;;;5078376;28;19952;-96
2022/07/25 07:45:31;;;;;;;;;;;30.30;51.80;;;;;;5077749;28;19968;-96
2022/07/25 07:48:04;;;;;;;;;;;30.40;52.80;;;;;;5078291;28;20359;-96
2022/07/25 07:50:30;;;;;;;;;;;30.50;53.20;;;;;;5096354;28;19947;-96
2022/07/25 07:52:57;;;;;;;;;;;30.50;51.50;;;;;;5079425;28;19944;-96
2022/07/25 07:58:08;;;;;;;;;;;30.60;51.30;;;;;;5095631;28;19946;-96
2022/07/25 08:00:38;;;;;;;;;;;30.60;50.50;;;;;;5095271;28;19969;-96
2022/07/25 08:03:06;;;;;;;;;;;30.70;51.80;;;;;;5077383;28;19988;-96
2022/07/25 08:05:40;;;;;;;;;;;30.70;51.60;;;;;;5075650;28;19945;-96
2022/07/25 08:08:08;;;;;;;;;;;30.70;50.50;;;;;;5076934;28;19946;-96
2022/07/25 08:10:37;;;;;;;;;;;30.80;50.70;;;;;;5075295;28;19942;-96
2022/07/25 08:13:14;;;;;;;;;;;30.80;51.20;;;;;;5074476;28;19945;-96
2022/07/25 08:15:45;;;;;;;;;;;30.80;51.70;;;;;;5076581;28;19976;-96
2022/07/25 08:18:14;;;;;;;;;;;30.90;50.10;;;;;;5076095;28;19957;-96
2022/07/25 08:20:40;;;;;;;;;;;30.90;50.80;;;;;;5091931;28;19943;-96
2022/07/25 08:23:12;;;;;;;;;;;30.80;50.00;;;;;;5080244;28;19941;-96
2022/07/25 08:25:44;;;;;;;;;;;30.90;51.20;;;;;;5082688;28;19972;-96
2022/07/25 08:28:18;;;;;;;;;;;30.90;50.40;;;;;;5066488;28;19965;-96
2022/07/25 08:33:25;;;;;;;;;;;31.10;51.10;;;;;;6091387;22;19974;-96
2022/07/25 08:44:36;;;;;;;;;;;31.40;49.40;;;;;;5341885;23;20134;-96
2022/07/25 08:47:02;;;;;;;;;;;31.50;49.10;;;;;;5003637;28;19947;-96
2022/07/25 08:49:28;;;;;;;;;;;31.50;49.70;;;;;;4999823;28;19941;-96
2022/07/25 08:51:54;;;;;;;;;;;31.60;48.60;;;;;;5002903;28;19974;-96
2022/07/25 08:54:20;;;;;;;;;;;31.70;47.80;;;;;;4998343;28;19938;-96
2022/07/25 08:56:46;;;;;;;;;;;31.70;47.60;;;;;;4997441;28;20425;-96
2022/07/25 08:59:12;;;;;;;;;;;31.70;46.80;;;;;;4997750;28;20049;-96
2022/07/25 09:01:38;;;;;;;;;;;31.70;45.60;;;;;;4997820;28;20405;-96
2022/07/25 09:04:06;;;;;;;;;;;31.70;45.40;;;;;;4998156;28;20006;-96
2022/07/25 09:06:35;;;;;;;;;;;31.70;46.40;;;;;;5003243;28;20399;-96
2022/07/25 09:09:03;;;;;;;;;;;31.70;45.40;;;;;;4980189;28;19944;-96
2022/07/25 09:11:33;;;;;;;;;;;31.80;47.10;;;;;;4997520;28;19942;-96
2022/07/25 09:14:00;;;;;;;;;;;31.90;46.50;;;;;;4997395;28;19943;-96
2022/07/25 09:16:30;;;;;;;;;;;32.10;45.80;;;;;;4996954;28;19999;-96
2022/07/25 09:19:06;;;;;;;;;;;32.10;46.00;;;;;;4980985;28;20413;-96
2022/07/25 09:21:31;;;;;;;;;;;32.10;45.30;;;;;;4996235;28;20006;-96
2022/07/25 09:24:06;;;;;;;;;;;32.20;45.00;;;;;;4995834;28;19944;-96
2022/07/25 09:26:41;;;;;;;;;;;32.10;45.20;;;;;;4974061;28;20449;-96
2022/07/25 09:29:07;;;;;;;;;;;32.20;46.70;;;;;;4997515;28;20405;-96
2022/07/25 09:31:33;;;;;;;;;;;32.30;46.50;;;;;;4998543;28;20081;-96
2022/07/25 09:34:00;;;;;;;;;;;32.40;45.20;;;;;;4998275;28;20412;-96
2022/07/25 09:36:26;;;;;;;;;;;32.50;45.70;;;;;;4998202;28;19967;-96
2022/07/25 09:38:53;;;;;;;;;;;32.50;45.10;;;;;;4999019;28;19956;-96
2022/07/25 09:41:19;;;;;;;;;;;32.60;45.00;;;;;;4998862;28;19940;-96
2022/07/25 09:43:44;;;;;;;;;;;32.70;44.50;;;;;;4997410;28;19991;-96
2022/07/25 09:46:10;;;;;;;;;;;32.70;44.50;;;;;;4981226;28;20321;-96
2022/07/25 09:48:38;;;;;;;;;;;32.70;45.10;;;;;;4998179;28;20299;-96
2022/07/25 09:51:04;;;;;;;;;;;32.90;44.80;;;;;;5003264;28;20458;-96
2022/07/25 09:53:30;;;;;;;;;;;32.90;44.00;;;;;;5005174;28;19943;-96
2022/07/25 09:55:56;;;;;;;;;;;32.90;44.70;;;;;;5006699;28;19970;-96
2022/07/25 09:58:22;;;;;;;;;;;33.00;42.50;;;;;;5004275;28;19945;-96
2022/07/25 10:00:48;;;;;;;;;;;32.90;41.80;;;;;;4984782;28;20459;-96
2022/07/25 10:03:23;;;;;;;;;;;33.10;41.00;;;;;;5002188;28;19937;-96
2022/07/25 10:05:57;;;;;;;;;;;33.20;43.40;;;;;;5001378;28;19987;-96
2022/07/25 10:08:23;;;;;;;;;;;33.40;41.00;;;;;;4982777;28;20404;-96
2022/07/25 10:10:49;;;;;;;;;;;33.50;40.70;;;;;;4989018;28;19941;-96
2022/07/25 10:13:27;;;;;;;;;;;33.70;41.20;;;;;;5006742;28;19951;-96
2022/07/25 10:15:53;;;;;;;;;;;33.70;41.60;;;;;;4991780;28;19964;-96
2022/07/25 10:18:21;;;;;;;;;;;33.90;41.40;;;;;;5007673;28;19968;-96
2022/07/25 10:20:48;;;;;;;;;;;34.10;41.30;;;;;;5007492;28;19938;-96
2022/07/25 10:23:18;;;;;;;;;;;34.20;40.40;;;;;;5008386;28;19968;-96
2022/07/25 10:25:47;;;;;;;;;;;34.20;40.10;;;;;;5006339;28;19938;-96
2022/07/25 10:28:17;;;;;;;;;;;34.20;40.10;;;;;;5005588;28;19940;-96
2022/07/25 10:30:43;;;;;;;;;;;34.20;40.10;;;;;;5003783;28;20405;-96
2022/07/25 10:33:10;;;;;;;;;;;34.20;39.70;;;;;;5004363;28;19944;-96
2022/07/25 10:35:36;;;;;;;;;;;34.20;40.60;;;;;;4984016;28;19965;-96
2022/07/25 10:38:02;;;;;;;;;;;34.20;38.00;;;;;;4997131;28;19943;-96
2022/07/25 10:40:29;;;;;;;;;;;34.40;37.30;;;;;;4996720;28;19943;-96
2022/07/25 10:43:01;;;;;;;;;;;34.50;36.70;;;;;;4995265;28;19942;-96
2022/07/25 10:45:32;;;;;;;;;;;34.50;35.70;;;;;;4999023;28;19984;-96
2022/07/25 10:48:05;;;;;;;;;;;34.50;34.90;;;;;;4998731;28;19938;-96
2022/07/25 10:50:30;;;;;;;;;;;34.40;35.50;;;;;;4996622;28;19944;-96
2022/07/25 10:53:06;;;;;;;;;;;34.20;37.20;;;;;;4997506;28;19939;-96
2022/07/25 10:55:34;;;;;;;;;;;34.40;38.80;;;;;;4998591;28;19946;-96
2022/07/25 10:58:05;;;;;;;;;;;34.40;36.60;;;;;;4998784;28;19985;-96
2022/07/25 11:00:31;;;;;;;;;;;34.40;36.20;;;;;;4999001;28;19940;-96
2022/07/25 11:02:56;;;;;;;;;;;34.40;36.20;;;;;;4998671;28;19949;-96
2022/07/25 11:05:22;;;;;;;;;;;34.60;36.90;;;;;;4999208;28;19941;-96
2022/07/25 11:07:51;;;;;;;;;;;34.70;37.30;;;;;;5000475;28;19951;-96
2022/07/25 11:10:23;;;;;;;;;;;34.80;36.70;;;;;;4998829;28;19949;-96
2022/07/25 11:12:49;;;;;;;;;;;34.90;35.80;;;;;;4998960;28;19949;-96
2022/07/25 11:15:15;;;;;;;;;;;35.00;35.60;;;;;;4998782;28;19941;-96
2022/07/25 11:17:48;;;;;;;;;;;35.10;36.50;;;;;;4998656;28;19964;-96
2022/07/25 11:20:16;;;;;;;;;;;35.40;36.00;;;;;;4998997;28;19937;-96
2022/07/25 11:22:42;;;;;;;;;;;35.30;35.40;;;;;;4998046;28;19943;-96
2022/07/25 11:25:13;;;;;;;;;;;35.50;35.20;;;;;;4998771;28;19947;-96
2022/07/25 11:27:38;;;;;;;;;;;35.50;34.70;;;;;;4980831;28;20294;-96
2022/07/25 11:30:13;;;;;;;;;;;35.60;33.50;;;;;;4998131;28;19953;-96
2022/07/25 11:32:42;;;;;;;;;;;35.70;34.60;;;;;;4998527;28;19938;-96
2022/07/25 11:35:11;;;;;;;;;;;35.80;36.00;;;;;;4998158;28;19945;-96
2022/07/25 11:37:38;;;;;;;;;;;35.80;35.80;;;;;;4998706;28;19967;-96
2022/07/25 11:40:04;;;;;;;;;;;35.70;35.10;;;;;;4998966;28;19946;-96
2022/07/25 11:42:40;;;;;;;;;;;35.70;34.70;;;;;;4999040;28;19941;-96
2022/07/25 11:45:19;;;;;;;;;;;35.70;34.50;;;;;;4998566;28;19983;-96
2022/07/25 11:48:06;;;;;;;;;;;35.70;35.50;;;;;;4997711;28;19947;-96
2022/07/25 11:50:32;;;;;;;;;;;35.90;34.10;;;;;;4997939;28;19944;-96
2022/07/25 11:53:00;;;;;;;;;;;36.20;35.50;;;;;;4998290;28;19989;-96
2022/07/25 11:55:29;;;;;;;;;;;36.50;34.10;;;;;;4997439;28;19937;-96
2022/07/25 11:58:00;;;;;;;;;;;36.60;33.20;;;;;;4997816;28;19945;-96
2022/07/25 12:00:25;;;;;;;;;;;36.20;32.90;;;;;;4997821;28;19946;-96
2022/07/25 12:02:51;;;;;;;;;;;36.00;33.00;;;;;;4998150;28;20030;-96
2022/07/25 12:05:20;;;;;;;;;;;36.10;34.80;;;;;;4997755;28;20392;-96
2022/07/25 12:07:47;;;;;;;;;;;36.50;34.30;;;;;;4997849;28;20040;-96
2022/07/25 12:10:21;;;;;;;;;;;36.90;34.10;;;;;;4997711;28;19941;-96
2022/07/25 12:12:50;;;;;;;;;;;37.20;32.10;;;;;;4999771;28;20396;-96
2022/07/25 12:15:23;;;;;;;;;;;37.70;33.10;;;;;;4998826;28;20321;-96
2022/07/25 12:17:52;;;;;;;;;;;38.20;32.30;;;;;;4997500;28;20404;-96
2022/07/25 12:20:28;;;;;;;;;;;38.00;31.00;;;;;;5000640;28;19943;-96
2022/07/25 12:22:55;;;;;;;;;;;37.60;31.60;;;;;;5001013;28;20028;-96
2022/07/25 12:25:21;;;;;;;;;;;37.60;31.50;;;;;;5000897;28;19951;-96
2022/07/25 12:27:47;;;;;;;;;;;37.70;31.60;;;;;;4999930;28;19942;-96
2022/07/25 12:30:13;;;;;;;;;;;37.70;30.30;;;;;;4981323;28;19951;-96
2022/07/25 12:32:39;;;;;;;;;;;37.50;31.10;;;;;;4999355;28;19951;-96
2022/07/25 12:35:06;;;;;;;;;;;37.70;30.90;;;;;;4981875;28;19950;-96
2022/07/25 12:37:31;;;;;;;;;;;38.00;31.70;;;;;;5000769;28;19966;-96
2022/07/25 12:39:57;;;;;;;;;;;38.50;31.00;;;;;;5005321;28;19942;-96
2022/07/25 12:42:23;;;;;;;;;;;38.40;30.50;;;;;;4999135;28;19939;-96
2022/07/25 12:44:49;;;;;;;;;;;38.10;31.20;;;;;;4999823;28;20071;-96
2022/07/25 12:47:14;;;;;;;;;;;38.00;30.30;;;;;;4982273;28;19949;-96
2022/07/25 12:49:40;;;;;;;;;;;38.00;30.50;;;;;;4997849;28;19940;-96
2022/07/25 12:52:06;;;;;;;;;;;38.50;30.00;;;;;;5002796;28;19939;-97
2022/07/25 12:54:32;;;;;;;;;;;39.10;29.80;;;;;;4983952;28;19947;-96
2022/07/25 12:56:57;;;;;;;;;;;39.50;28.60;;;;;;4999572;28;20066;-96
2022/07/25 12:59:23;;;;;;;;;;;39.90;28.50;;;;;;5003546;28;19941;-96
2022/07/25 13:01:49;;;;;;;;;;;40.30;27.90;;;;;;4988623;28;20364;-96
2022/07/25 13:04:14;;;;;;;;;;;40.20;27.70;;;;;;4999908;28;20307;-96
2022/07/25 13:06:40;;;;;;;;;;;40.00;27.80;;;;;;4998661;28;19946;-96
2022/07/25 13:09:06;;;;;;;;;;;40.00;27.50;;;;;;4998474;28;19993;-96
2022/07/25 13:11:31;;;;;;;;;;;40.10;27.90;;;;;;4998457;28;20018;-96
2022/07/25 13:13:57;;;;;;;;;;;40.20;27.20;;;;;;4996496;28;19962;-96
2022/07/25 13:16:22;;;;;;;;;;;40.30;27.00;;;;;;4996349;28;19962;-96
2022/07/25 13:18:48;;;;;;;;;;;40.50;26.90;;;;;;4997028;28;19938;-96
2022/07/25 13:21:14;;;;;;;;;;;41.30;26.20;;;;;;4996392;28;19940;-96
2022/07/25 13:23:40;;;;;;;;;;;41.80;27.40;;;;;;4996364;28;20037;-96
2022/07/25 13:26:06;;;;;;;;;;;42.50;26.10;;;;;;4996874;28;20388;-96
2022/07/25 13:28:31;;;;;;;;;;;42.50;25.70;;;;;;4979180;28;19940;-96
2022/07/25 13:30:57;;;;;;;;;;;41.90;25.80;;;;;;4997976;28;20355;-96
2022/07/25 13:33:23;;;;;;;;;;;41.50;25.70;;;;;;4996205;28;19949;-96
2022/07/25 13:35:48;;;;;;;;;;;41.60;25.70;;;;;;4995578;28;20332;-96
2022/07/25 13:38:14;;;;;;;;;;;41.90;25.90;;;;;;4996197;28;20365;-96
2022/07/25 13:40:40;;;;;;;;;;;41.60;25.50;;;;;;4996570;28;19953;-96
2022/07/25 13:43:08;;;;;;;;;;;41.30;26.00;;;;;;4998812;28;20385;-96
2022/07/25 13:45:34;;;;;;;;;;;41.40;26.00;;;;;;4998919;28;19962;-96
2022/07/25 13:48:00;;;;;;;;;;;41.00;26.00;;;;;;4997371;28;19939;-96
2022/07/25 13:50:26;;;;;;;;;;;41.40;24.80;;;;;;4998382;28;19946;-96
2022/07/25 13:52:51;;;;;;;;;;;41.10;25.20;;;;;;4996756;28;19965;-96
2022/07/25 13:55:19;;;;;;;;;;;41.10;25.60;;;;;;4997513;28;20337;-96
2022/07/25 13:57:45;;;;;;;;;;;41.10;25.80;;;;;;4996346;28;19964;-96
2022/07/25 14:00:10;;;;;;;;;;;41.40;25.50;;;;;;4995928;28;20311;-96
2022/07/25 14:02:36;;;;;;;;;;;41.50;26.20;;;;;;4995838;28;20286;-96
2022/07/25 14:05:02;;;;;;;;;;;41.70;25.30;;;;;;4995331;28;20407;-96
2022/07/25 14:07:28;;;;;;;;;;;41.70;25.40;;;;;;4997184;28;19948;-96
2022/07/25 14:09:53;;;;;;;;;;;41.50;25.00;;;;;;4995544;28;20356;-96
2022/07/25 14:12:19;;;;;;;;;;;40.90;25.90;;;;;;4995331;28;20401;-96
2022/07/25 14:14:44;;;;;;;;;;;40.90;26.00;;;;;;4995063;28;19938;-96
2022/07/25 14:17:10;;;;;;;;;;;41.40;24.70;;;;;;4995322;28;19970;-96
2022/07/25 14:19:36;;;;;;;;;;;41.70;25.50;;;;;;4995084;28;20387;-96
2022/07/25 14:22:02;;;;;;;;;;;42.50;24.70;;;;;;4995169;28;19999;-96
2022/07/25 14:24:27;;;;;;;;;;;43.10;24.00;;;;;;4995204;28;20312;-96
2022/07/25 14:26:53;;;;;;;;;;;43.00;22.80;;;;;;4994838;28;19949;-96
2022/07/25 14:29:20;;;;;;;;;;;42.30;23.80;;;;;;4994532;28;19944;-96
2022/07/25 14:31:45;;;;;;;;;;;42.10;24.80;;;;;;4995144;28;19942;-96